createdAt,value
2022-10-09T00:01:18.481Z,11.58
2022-10-09T00:06:23.956Z,11.56
2022-10-09T00:11:27.573Z,11.56
2022-10-09T00:16:29.820Z,11.53
2022-10-09T00:21:33.934Z,11.51
2022-10-09T00:26:35.912Z,11.49
2022-10-09T00:31:38.270Z,11.46
2022-10-09T00:36:40.071Z,11.42
2022-10-09T00:41:41.896Z,11.39
2022-10-09T00:46:48.742Z,11.34
2022-10-09T00:51:52.035Z,11.30
2022-10-09T00:56:54.915Z,11.28
2022-10-09T01:01:56.837Z,11.23
2022-10-09T01:07:18.072Z,11.21
2022-10-09T01:12:25.822Z,11.21
2022-10-09T01:17:36.801Z,11.22
2022-10-09T01:22:56.728Z,11.24
2022-10-09T01:28:00.088Z,11.22
2022-10-09T01:33:03.090Z,11.21
2022-10-09T01:38:06.636Z,11.19
2022-10-09T01:43:08.691Z,11.19
2022-10-09T01:48:16.630Z,11.19
2022-10-09T01:53:19.827Z,11.20
2022-10-09T01:58:44.377Z,11.18
2022-10-09T02:03:49.960Z,11.15
2022-10-09T02:08:54.127Z,11.14
2022-10-09T02:13:56.401Z,11.12
2022-10-09T02:19:08.576Z,11.09
2022-10-09T02:24:15.798Z,11.06
2022-10-09T02:29:17.681Z,11.03
2022-10-09T02:34:20.939Z,11.04
2022-10-09T02:39:22.842Z,11.03
2022-10-09T02:44:25.054Z,11.00
2022-10-09T02:49:27.047Z,10.98
2022-10-09T02:54:28.883Z,10.95
2022-10-09T02:59:32.187Z,10.93
2022-10-09T03:04:34.200Z,10.91
2022-10-09T03:09:36.331Z,10.89
2022-10-09T03:14:38.361Z,10.88
2022-10-09T03:19:40.199Z,10.85
2022-10-09T03:24:42.030Z,10.80
2022-10-09T03:29:43.835Z,10.73
2022-10-09T03:34:45.583Z,10.68
2022-10-09T03:39:47.660Z,10.65
2022-10-09T03:44:49.375Z,10.61
2022-10-09T03:49:51.178Z,10.60
2022-10-09T03:54:56.171Z,10.59
2022-10-09T03:59:58.082Z,10.58
2022-10-09T04:05:00.204Z,10.58
2022-10-09T04:10:02.104Z,10.56
2022-10-09T04:15:04.517Z,10.55
2022-10-09T04:20:06.776Z,10.53
2022-10-09T04:25:09.206Z,10.50
2022-10-09T04:30:11.368Z,10.49
2022-10-09T04:35:13.498Z,10.48
2022-10-09T04:40:15.341Z,10.45
2022-10-09T04:45:17.304Z,10.40
2022-10-09T04:50:19.183Z,10.35
2022-10-09T04:55:32.626Z,10.29
2022-10-09T05:00:35.084Z,10.23
2022-10-09T05:05:37.198Z,10.20
2022-10-09T05:10:38.968Z,10.17
2022-10-09T05:15:40.872Z,10.14
2022-10-09T05:20:42.745Z,10.13
2022-10-09T05:25:44.663Z,10.11
2022-10-09T05:30:46.656Z,10.10
2022-10-09T05:36:05.353Z,10.10
2022-10-09T05:41:10.388Z,10.10
2022-10-09T05:46:16.540Z,10.14
2022-10-09T05:51:21.343Z,10.16
2022-10-09T05:56:31.638Z,10.19
2022-10-09T06:01:38.997Z,10.24
2022-10-09T06:06:41.570Z,10.30
2022-10-09T06:11:43.872Z,10.32
2022-10-09T06:16:46.089Z,10.37
2022-10-09T06:21:48.116Z,10.44
2022-10-09T06:26:50.163Z,10.51
2022-10-09T06:31:52.227Z,10.59
2022-10-09T06:36:54.076Z,10.69
2022-10-09T06:41:55.926Z,10.82
2022-10-09T06:47:04.860Z,10.94
2022-10-09T06:52:06.975Z,11.04
2022-10-09T06:57:08.832Z,11.14
2022-10-09T07:02:10.742Z,11.22
2022-10-09T07:07:12.682Z,11.31
2022-10-09T07:12:14.465Z,11.42
2022-10-09T07:17:16.291Z,11.52
2022-10-09T07:22:18.298Z,11.62
2022-10-09T07:27:20.145Z,11.71
2022-10-09T07:32:21.943Z,11.80
2022-10-09T07:37:23.817Z,11.90
2022-10-09T07:42:25.723Z,11.99
2022-10-09T07:47:27.795Z,12.07
2022-10-09T07:52:29.603Z,12.12
2022-10-09T07:57:31.403Z,12.21
2022-10-09T08:02:33.286Z,12.33
2022-10-09T08:07:35.254Z,12.42
2022-10-09T08:12:37.056Z,12.54
2022-10-09T08:17:39.644Z,12.64
2022-10-09T08:22:41.452Z,12.78
2022-10-09T08:27:43.262Z,12.90
2022-10-09T08:32:45.247Z,13.00
2022-10-09T08:37:47.074Z,13.09
2022-10-09T08:42:58.698Z,13.18
2022-10-09T08:48:19.122Z,13.25
2022-10-09T08:54:10.553Z,13.34
2022-10-09T08:59:12.536Z,13.44
2022-10-09T09:04:14.303Z,13.49
2022-10-09T09:09:38.122Z,13.58
2022-10-09T09:14:55.403Z,13.65
2022-10-09T09:20:14.700Z,13.65
2022-10-09T09:25:26.172Z,13.69
2022-10-09T09:30:34.435Z,13.76
2022-10-09T09:35:48.287Z,13.80
2022-10-09T09:40:52.143Z,13.82
2022-10-09T09:46:01.618Z,13.90
2022-10-09T09:51:30.003Z,14.04
2022-10-09T09:57:10.400Z,14.10
2022-10-09T10:02:20.974Z,14.16
2022-10-09T10:07:34.784Z,14.16
2022-10-09T10:12:42.263Z,14.24
2022-10-09T10:17:44.231Z,14.31
2022-10-09T10:22:54.686Z,14.33
2022-10-09T10:28:03.756Z,14.37
2022-10-09T10:33:31.662Z,14.41
2022-10-09T10:38:43.487Z,14.43
2022-10-09T10:44:17.038Z,14.48
2022-10-09T10:49:21.482Z,14.48
2022-10-09T10:54:46.823Z,14.52
2022-10-09T10:59:54.456Z,14.56
2022-10-09T11:05:27.234Z,14.58
2022-10-09T11:10:57.499Z,14.57
2022-10-09T11:16:02.309Z,14.62
2022-10-09T11:21:22.566Z,14.58
2022-10-09T11:26:57.575Z,14.60
2022-10-09T11:32:32.935Z,14.63
2022-10-09T11:37:39.281Z,14.71
2022-10-09T11:42:41.723Z,14.73
2022-10-09T11:47:55.172Z,14.78
2022-10-09T11:53:20.859Z,14.81
2022-10-09T11:58:25.279Z,14.80
2022-10-09T12:03:33.289Z,14.78
2022-10-09T12:08:36.609Z,14.79
2022-10-09T12:13:42.350Z,14.83
2022-10-09T12:18:47.805Z,14.84
2022-10-09T12:23:51.398Z,14.87
2022-10-09T12:29:00.933Z,14.88
2022-10-09T12:34:13.573Z,14.84
2022-10-09T12:39:23.638Z,14.83
2022-10-09T12:44:32.995Z,14.84
2022-10-09T12:49:35.853Z,14.84
2022-10-09T12:54:43.563Z,14.85
2022-10-09T12:59:46.944Z,14.85
2022-10-09T13:04:58.323Z,14.85
2022-10-09T13:10:04.669Z,14.83
2022-10-09T13:15:33.266Z,14.83
2022-10-09T13:20:35.248Z,14.85
2022-10-09T13:25:40.571Z,14.88
2022-10-09T13:30:42.474Z,14.87
2022-10-09T13:35:44.905Z,14.85
2022-10-09T13:40:47.854Z,14.86
2022-10-09T13:45:50.069Z,14.82
2022-10-09T13:50:52.456Z,14.81
2022-10-09T13:56:00.009Z,14.82
2022-10-09T14:01:03.528Z,14.85
2022-10-09T14:06:05.491Z,14.85
2022-10-09T14:11:07.408Z,14.87
2022-10-09T14:16:11.278Z,14.88
2022-10-09T14:21:15.893Z,14.86
2022-10-09T14:26:17.864Z,14.88
2022-10-09T14:31:20.781Z,14.89
2022-10-09T14:36:22.914Z,14.88
2022-10-09T14:41:24.804Z,14.86
2022-10-09T14:46:29.081Z,14.86
2022-10-09T14:51:36.026Z,14.85
2022-10-09T14:56:39.320Z,14.82
2022-10-09T15:01:41.382Z,14.79
2022-10-09T15:06:43.729Z,14.76
2022-10-09T15:11:45.680Z,14.72
2022-10-09T15:16:47.592Z,14.70
2022-10-09T15:21:49.465Z,14.64
2022-10-09T15:26:51.505Z,14.60
2022-10-09T15:31:53.628Z,14.53
2022-10-09T15:36:55.488Z,14.48
2022-10-09T15:41:57.432Z,14.44
2022-10-09T15:46:59.372Z,14.36
2022-10-09T15:52:02.255Z,14.30
2022-10-09T15:57:04.555Z,14.20
2022-10-09T16:02:08.607Z,14.10
2022-10-09T16:07:10.603Z,14.02
2022-10-09T16:12:12.449Z,13.92
2022-10-09T16:17:14.314Z,13.83
2022-10-09T16:22:16.171Z,13.76
2022-10-09T16:27:18.078Z,13.68
2022-10-09T16:32:19.936Z,13.61
2022-10-09T16:37:21.937Z,13.49
2022-10-09T16:42:23.775Z,13.39
2022-10-09T16:47:25.748Z,13.30
2022-10-09T16:52:27.901Z,13.20
2022-10-09T16:57:29.891Z,13.13
2022-10-09T17:02:31.985Z,13.06
2022-10-09T17:07:35.283Z,12.98
2022-10-09T17:12:37.322Z,12.91
2022-10-09T17:17:39.616Z,12.82
2022-10-09T17:22:41.845Z,12.74
2022-10-09T17:27:44.374Z,12.67
2022-10-09T17:32:46.403Z,12.59
2022-10-09T17:37:48.440Z,12.54
2022-10-09T17:42:50.572Z,12.48
2022-10-09T17:47:52.900Z,12.41
2022-10-09T17:52:55.922Z,12.37
2022-10-09T17:57:58.067Z,12.29
2022-10-09T18:02:59.822Z,12.24
2022-10-09T18:08:03.054Z,12.15
2022-10-09T18:13:06.903Z,12.06
2022-10-09T18:18:10.322Z,12.00
2022-10-09T18:23:12.167Z,11.98
2022-10-09T18:28:15.193Z,11.92
2022-10-09T18:33:17.065Z,11.90
2022-10-09T18:38:18.794Z,11.88
2022-10-09T18:43:20.561Z,11.84
2022-10-09T18:48:22.973Z,11.82
2022-10-09T18:53:24.986Z,11.80
2022-10-09T18:58:27.047Z,11.76
2022-10-09T19:03:32.434Z,11.74
2022-10-09T19:08:35.284Z,11.71
2022-10-09T19:13:37.426Z,11.69
2022-10-09T19:18:39.674Z,11.67
2022-10-09T19:23:41.887Z,11.62
2022-10-09T19:28:44.144Z,11.55
2022-10-09T19:33:46.137Z,11.51
2022-10-09T19:38:47.906Z,11.47
2022-10-09T19:43:49.732Z,11.43
2022-10-09T19:48:51.811Z,11.40
2022-10-09T19:53:55.080Z,11.37
2022-10-09T19:58:58.418Z,11.32
2022-10-09T20:09:21.054Z,11.29
2022-10-09T20:14:22.843Z,11.28
2022-10-09T20:19:25.152Z,11.25
2022-10-09T20:24:27.546Z,11.19
2022-10-09T20:29:29.668Z,11.15
2022-10-09T20:34:31.561Z,11.09
2022-10-09T20:39:33.376Z,11.04
2022-10-09T20:44:35.322Z,10.98
2022-10-09T20:49:37.072Z,10.91
2022-10-09T20:54:39.023Z,10.83
2022-10-09T20:59:41.174Z,10.78
2022-10-09T21:04:43.047Z,10.73
2022-10-09T21:09:45.011Z,10.68
2022-10-09T21:14:47.012Z,10.67
2022-10-09T21:19:50.461Z,10.67
2022-10-09T21:24:52.606Z,10.64
2022-10-09T21:29:54.501Z,10.59
2022-10-09T21:34:57.203Z,10.58
2022-10-09T21:39:59.264Z,10.58
2022-10-09T21:45:01.056Z,10.56
2022-10-09T21:50:03.016Z,10.54
2022-10-09T21:55:05.184Z,10.56
2022-10-09T22:00:07.787Z,10.56
2022-10-09T22:05:10.121Z,10.59
2022-10-09T22:10:12.652Z,10.61
2022-10-09T22:15:14.471Z,10.63
2022-10-09T22:20:16.283Z,10.64
2022-10-09T22:25:18.256Z,10.62
2022-10-09T22:30:20.256Z,10.61
2022-10-09T22:35:22.723Z,10.56
2022-10-09T22:40:24.786Z,10.49
2022-10-09T22:45:26.585Z,10.42
2022-10-09T22:50:28.426Z,10.34
2022-10-09T22:55:30.397Z,10.29
2022-10-09T23:00:35.561Z,10.27
2022-10-09T23:05:37.438Z,10.25
2022-10-09T23:10:40.608Z,10.23
2022-10-09T23:15:42.416Z,10.23
2022-10-09T23:20:44.345Z,10.21
2022-10-09T23:25:46.154Z,10.20
2022-10-09T23:30:48.892Z,10.18
2022-10-09T23:35:50.942Z,10.15
2022-10-09T23:41:00.965Z,10.11
2022-10-09T23:46:04.963Z,10.10
2022-10-09T23:51:07.261Z,10.07
2022-10-09T23:56:25.263Z,10.07
